Lake Clark National Park, AK

1:27 PM AKST on November 23, 2014 (GMT -0900)
RAWS SNIPE LAKE AK US | Change Station
CLOSE
Current Station
Personal Weather Station
Location: Port Alsworth, AK
Elevation: 2314 ft
Nearby Weather Stations

Elev 2314 ft 60.61 °N, 154.32 °W | Updated 23 minutes ago

Light Snow Showers
Light Showers Snow
34 °F
Feels Like 28 °F
N
7
Wind Variable Wind from East
Gusts 11.0 mph

Today
High -- | Low -- °F
--% Chance of Precip.
Yesterday
High -- | Low -- °F
Precip. -- in
9:38 AM 4:29 PM
New Moon, 2% visible
Pressure 29.49 in
Visibility 10.0 miles
Clouds Mostly Cloudy 3500 ft
Overcast 4700 ft
Windchill 28 °F
Dew Point 22 °F
Humidity 61%
Rainfall 0.00 in
Snow Depth Not available.
UV 0 out of 12
Pollen Not available.
Air Quality Not available.
Flu Activity Not available.
METAR PASV 232155Z AUTO 00000KT 10SM -SHSN BKN035 OVC047 M09/M10 A2936 RMK AO2 SHSNB2041E2108B2148 SLP986 P0000 T10921100

More Conditions Fewer Conditions

Pressure 29.49 in
Visibility 10.0 miles
Clouds Mostly Cloudy 3500 ft
Overcast 4700 ft
Windchill 28 °F
Dew Point 22 °F
Humidity 61%
Rainfall 0.00 in
Snow Depth Not available.
UV 0 out of 12
Pollen Not available.
Air Quality Not available.
Flu Activity Not available.
METAR PASV 232155Z AUTO 00000KT 10SM -SHSN BKN035 OVC047 M09/M10 A2936 RMK AO2 SHSNB2041E2108B2148 SLP986 P0000 T10921100

More Conditions Fewer Conditions

10-Day Weather Forecast

Almanac

Astronomy

Nov. 23, 2014 Rise Set
Actual Time
Civil Twilight
Nautical Twilight
Astronomical Twilight
Moon
Length of Visible Light
Length of Day
Tomorrow will be .
, % of the Moon is Illuminated

Today's Extremes

State Highs State Lows

Community

WunderPhotos

Upload Photos

1,773,186 photos uploaded!

WunderBlogs® & News

Nearby

Air Quality

  Air Quality AQ Index Pollutant
Not available.

Snow Depth

Station Depth Elevation

Earthquake Activity

City Distance Mag. Time & Date
Minimum magnitude displayed is 2.5.

Coastal Water Temperatures

Place Temperature

Nearby Weather Stations